< < Back
Terminal Aerodrome Forecast


Current Version              Previous Versions:   1  2  3  4  5  6  7  8  9  

Terminal Aerodrome Forecast

543
FTUS42 KMLB 281120
TAFMCO
TAF
KMCO 281120Z 2812/2912 06005KT P6SM FEW030
     FM281400 08009KT P6SM SCT035
     FM281800 08013G19KT P6SM SCT050
     FM290200 07007KT P6SM FEW030=



Latest METAR

145
SAUS70 KWBC 282000 RRM
MTRMCO
METAR KMCO 281953Z 08014G20KT 10SM SCT045 BKN070 30/18 A3010 RMK AO2
SLP190 T03000178


USA.gov is the U.S. government's official web portal to all federal, state and local government web resources and services.